ETHF/FRZ METAR and TAF weather

Enter ICAO airport designator
Station Type Date Time Source
ETHF METAR 2021/04/17 02:20 UTC NOAA

ETHF 170220Z AUTO 30005KT 9999 // ////// 03/M02 Q1024 ///


Station Type Date Time Source
ETHF Decoded METAR 2021/04/17 02:20 UTC NOAA

Fritzlar, Germany (ETHF) 51-07N 009-17E 181M
Apr 16, 2021 - 10:20 PM EDT / 2021.04.17 0220 UTC
Wind: from the WNW (300 degrees) at 6 MPH (5 KT):0
Visibility: greater than 7 mile(s):0
Temperature: 37 F (3 C)
Dew Point: 28 F (-2 C)
Relative Humidity: 69%
Pressure (altimeter): 30.24 in. Hg (1024 hPa)
ob: ETHF 170220Z AUTO 30005KT 9999 // ////// 03/M02 Q1024 ///
cycle: 2

Station Type Date Time Source
ETHF TAF 2020/09/07 12:21 UTC NOAA

TAF ETHF 071611Z 0712/0802 VRB02KT 9999 NSW FEW030 PROB30 0723/0802 VRB01KT 5000 MIFG SKC

Example: see airport list